Time;durP1;ratioP1;P1;durP2;ratioP2;P2;SDS_P1;SDS_P2;PMS_P1;PMS_P2;Temp;Humidity;BMP_temperature;BMP_pressure;BME280_temperature;BME280_humidity;BME280_pressure;Samples;Min_cycle;Max_cycle;Signal;HPM_P1;HPM_P2
2022/07/16 00:02:17;;;;;;;9.95;5.25;;;;;;;15.01;75.74;102047.63;4987652;28;20045;-72
2022/07/16 00:04:42;;;;;;;10.20;4.72;;;;;;;15.02;74.65;102051.22;4986993;28;20030;-72
2022/07/16 00:07:08;;;;;;;9.82;5.65;;;;;;;15.05;75.21;102050.75;5001722;28;20463;-72
2022/07/16 00:09:33;;;;;;;8.75;4.70;;;;;;;14.99;75.86;102047.00;4989045;28;20037;-72
2022/07/16 00:11:59;;;;;;;10.10;5.18;;;;;;;14.98;75.50;102042.53;5006419;28;20025;-72
2022/07/16 00:14:24;;;;;;;9.63;5.15;;;;;;;14.96;76.08;102050.25;4998786;28;20022;-72
2022/07/16 00:16:49;;;;;;;11.38;5.95;;;;;;;15.10;72.17;102047.28;4985942;28;20041;-72
2022/07/16 00:19:23;;;;;;;11.25;4.80;;;;;;;15.10;74.96;102039.00;5003634;28;20111;-71
2022/07/16 00:21:52;;;;;;;10.30;5.00;;;;;;;15.02;76.13;102049.31;4999973;28;20594;-71
2022/07/16 00:24:18;;;;;;;8.90;5.18;;;;;;;14.95;75.91;102050.44;4994076;28;20114;-72
2022/07/16 00:26:44;;;;;;;11.98;5.13;;;;;;;14.91;76.08;102052.00;4996355;28;20067;-72
2022/07/16 00:29:11;;;;;;;8.88;4.95;;;;;;;14.91;76.62;102046.47;5002683;28;20068;-72
2022/07/16 00:31:36;;;;;;;10.02;5.18;;;;;;;14.93;76.72;102052.63;5002996;28;20034;-71
2022/07/16 00:34:07;;;;;;;12.18;5.28;;;;;;;14.99;78.07;102057.22;5003375;28;21015;-72
2022/07/16 00:36:33;;;;;;;9.30;5.22;;;;;;;15.01;78.63;102055.09;4986049;28;20030;-71
2022/07/16 00:38:58;;;;;;;10.18;4.88;;;;;;;15.00;79.65;102032.09;4986074;28;20121;-71
2022/07/16 00:41:23;;;;;;;9.27;5.30;;;;;;;14.99;80.19;102041.47;4986814;28;20432;-72
2022/07/16 00:43:52;;;;;;;9.13;5.22;;;;;;;14.99;79.68;102047.00;4987937;28;20038;-72
2022/07/16 00:46:18;;;;;;;9.57;5.13;;;;;;;15.03;80.23;102036.31;5003674;28;20109;-71
2022/07/16 00:48:45;;;;;;;10.43;5.75;;;;;;;15.12;75.58;102046.00;4994133;28;20483;-71
2022/07/16 00:51:11;;;;;;;10.20;5.30;;;;;;;15.21;75.17;102050.16;4985073;28;20030;-71
2022/07/16 00:53:37;;;;;;;14.95;5.50;;;;;;;15.31;73.82;102047.69;4986726;28;20069;-71
2022/07/16 00:56:03;;;;;;;9.18;5.25;;;;;;;15.40;72.39;102045.41;4986160;28;20031;-71
2022/07/16 00:58:28;;;;;;;10.88;5.80;;;;;;;15.43;71.71;102039.41;4986762;28;20104;-71
2022/07/16 01:00:54;;;;;;;11.57;6.40;;;;;;;15.48;71.44;102035.94;4984184;28;20432;-71
2022/07/16 01:03:19;;;;;;;8.98;5.25;;;;;;;15.48;72.28;102034.03;4985919;28;20042;-71
2022/07/16 01:05:45;;;;;;;13.13;6.35;;;;;;;15.54;70.77;102035.84;4986268;28;20463;-71
2022/07/16 01:08:11;;;;;;;12.70;5.95;;;;;;;15.55;70.14;102036.69;4985389;28;20030;-71
2022/07/16 01:10:38;;;;;;;9.70;6.53;;;;;;;15.54;70.25;102037.78;4999106;22;20076;-71
2022/07/16 01:13:03;;;;;;;11.82;6.72;;;;;;;15.58;70.37;102034.31;5005518;28;20034;-71
2022/07/16 01:15:29;;;;;;;13.50;6.32;;;;;;;15.57;70.21;102037.31;5002752;28;20040;-71
2022/07/16 01:17:54;;;;;;;10.65;6.43;;;;;;;15.55;70.53;102033.91;5004091;28;20750;-71
2022/07/16 01:20:20;;;;;;;10.35;6.32;;;;;;;15.51;71.55;102030.78;5005592;28;20117;-72
2022/07/16 01:22:46;;;;;;;10.80;6.30;;;;;;;15.51;71.02;102025.25;5005108;28;20452;-71
2022/07/16 01:25:11;;;;;;;10.23;6.07;;;;;;;15.56;71.57;102030.06;5003253;28;20083;-71
2022/07/16 01:27:38;;;;;;;12.32;5.63;;;;;;;15.56;72.28;102028.16;5003520;28;20029;-72
2022/07/16 01:30:08;;;;;;;10.43;6.18;;;;;;;15.55;70.63;102025.59;4989242;28;20217;-71
2022/07/16 01:32:34;;;;;;;11.85;5.65;;;;;;;15.56;71.65;102039.25;5003636;28;20052;-72
2022/07/16 01:34:59;;;;;;;9.18;5.43;;;;;;;15.60;70.32;102035.97;5005217;28;20109;-72
2022/07/16 01:37:25;;;;;;;9.45;5.82;;;;;;;15.61;69.54;102038.50;5005787;28;20516;-72
2022/07/16 01:39:50;;;;;;;11.50;5.40;;;;;;;15.62;69.24;102034.69;5011696;28;20076;-72
2022/07/16 01:42:15;;;;;;;11.13;5.80;;;;;;;15.66;69.38;102038.72;5004401;28;20025;-72
2022/07/16 01:44:40;;;;;;;9.82;6.20;;;;;;;15.68;69.47;102027.38;5003285;28;20020;-72
2022/07/16 01:47:07;;;;;;;10.90;5.90;;;;;;;15.69;68.88;102029.06;5004149;28;20036;-72
2022/07/16 01:49:35;;;;;;;10.43;5.40;;;;;;;15.69;69.33;102029.06;5017554;28;20022;-72
2022/07/16 01:52:21;;;;;;;11.60;5.65;;;;;;;15.74;68.96;102029.22;5017309;28;20041;-72
2022/07/16 01:54:51;;;;;;;11.63;5.25;;;;;;;15.71;68.84;102030.53;5003204;28;20035;-70
2022/07/16 01:57:17;;;;;;;8.00;5.15;;;;;;;15.66;69.11;102040.59;5003694;28;20040;-70
2022/07/16 01:59:44;;;;;;;10.45;5.78;;;;;;;15.64;69.13;102035.31;5004384;28;20025;-72
2022/07/16 02:02:09;;;;;;;10.65;5.95;;;;;;;15.62;69.05;102031.91;5004212;28;20026;-72
2022/07/16 02:04:35;;;;;;;8.85;5.72;;;;;;;15.58;69.74;102033.47;5004967;28;20034;-72
2022/07/16 02:07:01;;;;;;;8.27;5.63;;;;;;;15.60;70.20;102022.13;5014690;28;20029;-72
2022/07/16 02:09:26;;;;;;;11.18;5.57;;;;;;;15.60;69.34;102035.97;5018965;28;20037;-72
2022/07/16 02:11:51;;;;;;;10.13;6.00;;;;;;;15.60;70.88;102030.44;5015518;28;20063;-71
2022/07/16 02:14:17;;;;;;;9.02;5.43;;;;;;;15.60;70.40;102027.69;5006207;28;20034;-72
2022/07/16 02:16:42;;;;;;;9.95;6.15;;;;;;;15.60;70.14;102024.91;5004681;28;20034;-72
2022/07/16 02:19:07;;;;;;;10.40;6.05;;;;;;;15.57;69.36;102018.78;5003696;28;20053;-71
2022/07/16 02:21:33;;;;;;;12.05;6.38;;;;;;;15.58;69.22;102016.84;5002531;28;20116;-72
2022/07/16 02:23:59;;;;;;;12.93;6.25;;;;;;;15.61;69.59;102021.06;5003108;28;20429;-72
2022/07/16 02:26:25;;;;;;;12.95;6.25;;;;;;;15.66;70.07;102024.00;5002833;28;20018;-72
2022/07/16 02:28:50;;;;;;;9.82;5.80;;;;;;;15.65;69.92;102025.91;5002943;28;20574;-73
2022/07/16 02:31:15;;;;;;;10.70;5.82;;;;;;;15.65;69.96;102020.38;5002539;28;20022;-72
2022/07/16 02:33:41;;;;;;;10.75;6.22;;;;;;;15.67;69.36;102014.63;5005336;28;20029;-72
2022/07/16 02:36:06;;;;;;;10.65;6.60;;;;;;;15.71;69.98;102024.13;5008261;28;20021;-72
2022/07/16 02:38:31;;;;;;;11.65;6.30;;;;;;;15.71;69.47;102022.22;5023795;28;20025;-72
2022/07/16 02:40:57;;;;;;;11.48;6.80;;;;;;;15.71;69.32;102015.81;5024129;28;20044;-73
2022/07/16 02:43:22;;;;;;;11.85;6.85;;;;;;;15.71;68.40;102021.34;5004713;28;20036;-72
2022/07/16 02:45:47;;;;;;;10.43;6.70;;;;;;;15.73;68.65;102016.44;5002095;28;20385;-72
2022/07/16 02:48:13;;;;;;;13.70;7.25;;;;;;;15.72;68.79;102012.00;5007589;28;20026;-72
2022/07/16 02:50:39;;;;;;;12.93;7.38;;;;;;;15.73;68.22;102016.44;5022946;28;20056;-72
2022/07/16 02:53:04;;;;;;;14.25;8.15;;;;;;;15.73;68.86;102011.75;5024018;28;20056;-72
2022/07/16 02:55:30;;;;;;;12.20;8.85;;;;;;;15.76;68.33;102004.88;5021457;28;20037;-72
2022/07/16 02:57:56;;;;;;;12.90;8.32;;;;;;;15.79;68.81;102019.09;5015923;28;20032;-72
2022/07/16 03:00:21;;;;;;;11.73;8.20;;;;;;;15.80;68.61;102008.88;5001664;28;20626;-72
2022/07/16 03:02:47;;;;;;;15.18;8.57;;;;;;;15.81;69.13;102016.97;5004407;28;20113;-72
2022/07/16 03:05:13;;;;;;;11.73;8.65;;;;;;;15.80;67.88;102012.47;5004711;28;20080;-72
2022/07/16 03:07:38;;;;;;;12.73;8.48;;;;;;;15.81;68.00;102013.31;5006106;28;20022;-72
2022/07/16 03:10:05;;;;;;;10.77;8.80;;;;;;;15.80;68.01;102015.25;5021232;28;20388;-72
2022/07/16 03:12:31;;;;;;;14.48;9.63;;;;;;;15.81;68.22;102013.31;5007858;28;20041;-72
2022/07/16 03:14:57;;;;;;;13.93;8.60;;;;;;;15.81;67.68;102013.31;5006584;28;20022;-72
2022/07/16 03:17:22;;;;;;;12.23;8.43;;;;;;;15.79;67.95;102021.03;5007031;28;20060;-72
2022/07/16 03:19:48;;;;;;;10.35;7.88;;;;;;;15.82;67.91;102023.34;5007268;28;20464;-73
2022/07/16 03:22:13;;;;;;;13.38;8.45;;;;;;;15.83;67.94;102028.63;5006517;28;20425;-72
2022/07/16 03:24:39;;;;;;;11.45;8.00;;;;;;;15.82;68.41;102029.72;5008055;28;20034;-72
2022/07/16 03:27:04;;;;;;;12.88;7.63;;;;;;;15.83;68.55;102031.41;5004994;28;20087;-72
2022/07/16 03:29:29;;;;;;;10.95;7.63;;;;;;;15.83;68.10;102025.88;5006178;28;20026;-72
2022/07/16 03:31:55;;;;;;;13.20;8.02;;;;;;;15.86;68.95;102032.84;5007074;28;20087;-72
2022/07/16 03:34:20;;;;;;;12.93;8.00;;;;;;;15.87;68.74;102042.88;5007952;28;20034;-73
2022/07/16 03:36:45;;;;;;;12.75;7.30;;;;;;;15.88;68.89;102043.72;5007213;28;20030;-72
2022/07/16 03:39:11;;;;;;;11.95;8.15;;;;;;;15.88;69.45;102039.00;5007579;28;20095;-72
2022/07/16 03:41:38;;;;;;;14.43;7.80;;;;;;;15.88;69.86;102041.78;5006119;28;20476;-72
2022/07/16 03:44:07;;;;;;;10.27;7.70;;;;;;;15.89;69.50;102040.69;5006151;28;20018;-72
2022/07/16 03:46:32;;;;;;;15.05;8.00;;;;;;;15.91;70.19;102049.59;5007115;28;20022;-72
2022/07/16 03:48:58;;;;;;;11.63;7.50;;;;;;;15.92;70.68;102044.94;5006646;28;20038;-72
2022/07/16 03:51:23;;;;;;;11.38;7.47;;;;;;;15.92;70.47;102053.25;5006600;28;20029;-72
2022/07/16 03:53:49;;;;;;;11.25;7.93;;;;;;;15.92;70.98;102058.78;5006840;28;20025;-72
2022/07/16 03:56:15;;;;;;;12.10;7.72;;;;;;;15.90;71.21;102061.75;5005948;28;20045;-72
2022/07/16 03:58:40;;;;;;;10.80;7.35;;;;;;;15.88;72.00;102055.63;5006952;28;20586;-72
2022/07/16 04:01:06;;;;;;;12.77;7.55;;;;;;;15.85;71.96;102061.63;5005234;28;20068;-72
2022/07/16 04:03:33;;;;;;;11.07;7.38;;;;;;;15.84;72.40;102062.72;5007187;28;20492;-73
2022/07/16 04:05:58;;;;;;;13.18;6.93;;;;;;;15.83;72.99;102069.34;5006866;28;20071;-72
2022/07/16 04:08:24;;;;;;;17.85;7.57;;;;;;;15.81;73.33;102074.25;5006137;28;20092;-72
2022/07/16 04:10:49;;;;;;;12.63;6.88;;;;;;;15.80;73.54;102070.66;5005400;28;20046;-71
2022/07/16 04:13:14;;;;;;;12.50;7.30;;;;;;;15.78;73.58;102072.81;5006479;28;20112;-72
2022/07/16 04:15:39;;;;;;;11.13;6.20;;;;;;;15.74;74.41;102079.06;5005937;28;20116;-73
2022/07/16 04:18:06;;;;;;;12.23;6.05;;;;;;;15.70;74.82;102075.06;5005607;28;20026;-72
2022/07/16 04:20:32;;;;;;;9.50;6.32;;;;;;;15.65;75.44;102083.25;5005704;28;20274;-72
2022/07/16 04:22:57;;;;;;;9.57;6.00;;;;;;;15.64;76.12;102081.56;5005786;28;20041;-72
2022/07/16 04:25:22;;;;;;;10.77;5.95;;;;;;;15.64;76.79;102084.31;5006150;28;20018;-72
2022/07/16 04:27:48;;;;;;;9.32;5.90;;;;;;;15.64;77.52;102076.84;5006229;28;20037;-72
2022/07/16 04:30:13;;;;;;;11.23;6.07;;;;;;;15.61;77.34;102084.75;5007737;28;20030;-72
2022/07/16 04:32:40;;;;;;;8.93;5.97;;;;;;;15.66;78.28;102084.91;5005220;28;20033;-72
2022/07/16 04:35:06;;;;;;;12.52;7.00;;;;;;;15.83;77.90;102088.75;4986589;28;20026;-72
2022/07/16 04:37:32;;;;;;;11.82;5.93;;;;;;;15.81;78.07;102082.56;4995711;28;20041;-72
2022/07/16 04:39:58;;;;;;;11.50;6.18;;;;;;;15.76;78.76;102088.84;5006135;28;20030;-72
2022/07/16 04:42:23;;;;;;;11.45;6.25;;;;;;;15.69;79.06;102095.53;5004674;28;20670;-72
2022/07/16 04:44:48;;;;;;;11.27;5.43;;;;;;;15.65;79.80;102099.84;5004137;28;20468;-72
2022/07/16 04:47:14;;;;;;;10.80;6.00;;;;;;;15.61;80.93;102091.13;5006626;28;20163;-73
2022/07/16 04:49:39;;;;;;;11.40;6.38;;;;;;;15.58;81.43;102097.16;5004336;28;20099;-72
2022/07/16 04:52:05;;;;;;;11.35;5.85;;;;;;;15.58;82.38;102106.31;5006801;28;20057;-73
2022/07/16 04:54:30;;;;;;;10.48;5.75;;;;;;;15.58;82.67;102105.47;5004962;28;20438;-72
2022/07/16 04:56:56;;;;;;;10.73;5.65;;;;;;;15.60;83.16;102103.28;5005383;28;20029;-72
2022/07/16 04:59:21;;;;;;;9.77;5.75;;;;;;;15.60;83.78;102096.91;5004615;28;20034;-72
2022/07/16 05:01:46;;;;;;;9.88;5.75;;;;;;;15.63;84.24;102111.19;5005091;28;20413;-72
2022/07/16 05:04:12;;;;;;;11.00;5.60;;;;;;;15.66;85.30;102110.72;5004822;28;20460;-72
2022/07/16 05:06:37;;;;;;;10.20;5.85;;;;;;;15.73;85.42;102113.38;5005546;28;20033;-72
2022/07/16 05:09:03;;;;;;;8.27;5.30;;;;;;;15.76;86.66;102111.00;5005574;28;20080;-72
2022/07/16 05:11:29;;;;;;;8.48;4.93;;;;;;;15.78;87.42;102122.69;5003436;28;20046;-72
2022/07/16 05:13:55;;;;;;;13.00;5.97;;;;;;;15.85;87.47;102117.03;5004796;28;20092;-72
2022/07/16 05:16:22;;;;;;;10.18;5.40;;;;;;;15.91;87.59;102116.09;5005769;28;20077;-72
2022/07/16 05:18:47;;;;;;;9.93;5.32;;;;;;;16.01;87.42;102123.84;5004885;28;20036;-72
2022/07/16 05:21:12;;;;;;;8.48;5.03;;;;;;;16.05;87.71;102120.38;5003026;28;20029;-71
2022/07/16 05:23:38;;;;;;;10.40;5.68;;;;;;;16.07;87.12;102121.00;5004965;28;20484;-71
2022/07/16 05:26:03;;;;;;;10.75;5.68;;;;;;;16.11;87.57;102126.03;5004938;28;20036;-72
2022/07/16 05:28:28;;;;;;;13.00;5.90;;;;;;;16.13;87.47;102123.91;5004801;28;20037;-72
2022/07/16 05:30:54;;;;;;;10.10;5.78;;;;;;;16.14;88.08;102126.44;4999949;28;20042;-72
2022/07/16 05:33:19;;;;;;;11.70;5.85;;;;;;;16.17;87.89;102131.50;5004844;28;20152;-72
2022/07/16 05:35:44;;;;;;;12.38;6.22;;;;;;;16.19;88.08;102128.50;5005226;28;20032;-71
2022/07/16 05:38:10;;;;;;;12.18;6.15;;;;;;;16.21;88.16;102134.63;5004090;28;20028;-71
2022/07/16 05:40:36;;;;;;;11.93;6.47;;;;;;;16.24;88.18;102126.69;5003851;28;20040;-72
2022/07/16 05:43:01;;;;;;;13.85;6.63;;;;;;;16.27;87.33;102133.66;5005407;28;20060;-72
2022/07/16 05:45:27;;;;;;;14.85;6.75;;;;;;;16.30;86.93;102130.44;5004078;28;20018;-72
2022/07/16 05:47:52;;;;;;;13.82;6.65;;;;;;;16.32;86.07;102133.81;5004582;28;20045;-71
2022/07/16 05:50:17;;;;;;;14.63;6.75;;;;;;;16.34;86.34;102134.44;5002915;28;20069;-71
2022/07/16 05:52:43;;;;;;;16.80;7.07;;;;;;;16.36;86.79;102135.03;5005470;28;20564;-72
2022/07/16 05:55:09;;;;;;;14.60;6.53;;;;;;;16.39;85.97;102140.09;5003646;28;20042;-72
2022/07/16 05:57:34;;;;;;;16.38;6.80;;;;;;;16.44;86.26;102148.56;5004941;28;20026;-72
2022/07/16 05:59:59;;;;;;;16.70;7.15;;;;;;;16.52;85.89;102144.56;4999611;28;20044;-71
2022/07/16 06:02:25;;;;;;;16.13;6.20;;;;;;;16.59;84.93;102156.44;5011865;28;20052;-71
2022/07/16 06:04:50;;;;;;;13.18;5.82;;;;;;;16.59;84.55;102143.41;5003585;28;20528;-72
2022/07/16 06:07:16;;;;;;;15.23;6.25;;;;;;;16.62;84.98;102150.38;5003966;28;20053;-71
2022/07/16 06:09:41;;;;;;;17.35;6.13;;;;;;;16.66;84.67;102156.31;5003001;28;20033;-72
2022/07/16 06:12:06;;;;;;;13.68;6.00;;;;;;;16.71;83.83;102159.19;5007726;28;20049;-72
2022/07/16 06:14:32;;;;;;;15.90;6.00;;;;;;;16.75;83.35;102166.00;5018233;28;20021;-72
2022/07/16 06:16:57;;;;;;;14.07;6.07;;;;;;;16.81;83.34;102168.66;5003538;28;20057;-70
2022/07/16 06:19:22;;;;;;;13.60;5.85;;;;;;;16.85;83.03;102171.78;5002864;28;20400;-70
2022/07/16 06:21:47;;;;;;;11.65;5.53;;;;;;;16.94;83.05;102170.34;5003694;28;20064;-70
2022/07/16 06:24:13;;;;;;;12.77;5.88;;;;;;;17.01;81.81;102165.53;5001765;28;20025;-70
2022/07/16 06:26:46;;;;;;;17.92;6.20;;;;;;;17.08;81.74;102174.59;5003544;28;20485;-70
2022/07/16 06:29:12;;;;;;;13.95;5.45;;;;;;;17.16;81.50;102166.97;5004175;28;20037;-70
2022/07/16 06:31:37;;;;;;;10.65;5.20;;;;;;;17.15;79.77;102166.13;5003797;28;20072;-71
2022/07/16 06:34:02;;;;;;;9.95;5.15;;;;;;;17.23;79.76;102184.34;5002049;28;20026;-70
2022/07/16 06:36:28;;;;;;;12.02;5.25;;;;;;;17.31;78.56;102187.59;5002178;28;20042;-71
2022/07/16 06:38:53;;;;;;;14.68;5.60;;;;;;;17.40;78.54;102190.84;5001667;28;20471;-70
2022/07/16 06:41:18;;;;;;;10.40;4.18;;;;;;;17.46;78.13;102197.38;4993989;28;20037;-70
2022/07/16 06:43:43;;;;;;;11.38;3.95;;;;;;;17.54;76.89;102195.06;5005032;28;20068;-70
2022/07/16 06:46:09;;;;;;;9.02;3.72;;;;;;;17.61;76.50;102198.53;5025867;28;20104;-70
2022/07/16 06:48:34;;;;;;;9.75;3.60;;;;;;;17.62;74.74;102193.81;5022091;28;20436;-70
2022/07/16 06:51:00;;;;;;;6.55;3.00;;;;;;;17.70;74.46;102204.56;5007427;28;20060;-69
2022/07/16 06:53:25;;;;;;;10.10;3.30;;;;;;;17.67;74.92;102199.50;5007738;28;20030;-70
2022/07/16 06:55:50;;;;;;;7.43;2.47;;;;;;;17.69;74.27;102204.78;5008086;28;20025;-70
2022/07/16 06:58:16;;;;;;;9.73;3.00;;;;;;;17.72;75.37;102212.66;5008522;28;20018;-70
2022/07/16 07:00:41;;;;;;;4.28;2.25;;;;;;;17.68;73.19;102208.66;5014937;28;20699;-72
2022/07/16 07:03:06;;;;;;;6.25;2.25;;;;;;;17.70;70.82;102217.63;5005517;28;20634;-72
2022/07/16 07:05:32;;;;;;;5.68;2.50;;;;;;;17.75;70.08;102220.53;5005615;28;20048;-72
2022/07/16 07:07:57;;;;;;;5.13;2.13;;;;;;;17.81;68.35;102222.34;5007105;28;20026;-71
2022/07/16 07:10:22;;;;;;;8.32;2.00;;;;;;;17.81;68.00;102222.34;5005944;28;20026;-71
2022/07/16 07:12:47;;;;;;;6.15;2.30;;;;;;;17.94;69.42;102235.09;5007257;28;20037;-71
2022/07/16 07:15:13;;;;;;;7.15;2.28;;;;;;;17.95;68.42;102232.09;5005148;28;20302;-71
2022/07/16 07:17:38;;;;;;;6.80;2.00;;;;;;;17.95;67.88;102239.59;5006975;28;20025;-70
2022/07/16 07:20:06;;;;;;;5.57;1.98;;;;;;;18.00;68.26;102242.47;5006771;28;20033;-71
2022/07/16 07:22:31;;;;;;;7.25;2.30;;;;;;;18.00;68.64;102246.09;5006757;28;20026;-71
2022/07/16 07:24:56;;;;;;;8.63;2.20;;;;;;;18.06;67.21;102245.09;5006244;28;20381;-71
2022/07/16 07:27:22;;;;;;;6.22;1.88;;;;;;;18.24;69.75;102251.56;5006577;28;20033;-71
2022/07/16 07:29:48;;;;;;;7.13;2.40;;;;;;;18.39;68.93;102249.06;5017315;28;20037;-71
2022/07/16 07:32:14;;;;;;;6.80;2.25;;;;;;;18.47;67.60;102248.69;5025968;28;20029;-71
2022/07/16 07:34:39;;;;;;;8.77;2.75;;;;;;;18.51;66.69;102251.81;5022110;28;20377;-71
2022/07/16 07:37:05;;;;;;;7.43;2.35;;;;;;;18.51;64.12;102249.88;5005551;28;20033;-72
2022/07/16 07:39:30;;;;;;;5.00;1.87;;;;;;;18.52;64.27;102253.50;5004744;28;20037;-71
2022/07/16 07:41:56;;;;;;;6.28;1.88;;;;;;;18.57;64.07;102260.00;5005278;28;20389;-72
2022/07/16 07:44:22;;;;;;;5.60;2.10;;;;;;;18.56;63.07;102261.09;5005588;28;20018;-71
2022/07/16 07:46:47;;;;;;;7.65;2.50;;;;;;;18.60;63.54;102264.19;5005578;28;20025;-71
2022/07/16 07:49:12;;;;;;;10.10;2.83;;;;;;;18.75;64.68;102258.09;5006802;28;20081;-72
2022/07/16 07:51:38;;;;;;;8.38;2.65;;;;;;;18.92;62.82;102259.81;5005708;28;20279;-72
2022/07/16 07:54:03;;;;;;;6.70;2.00;;;;;;;19.04;62.76;102262.50;5005711;28;20445;-71
2022/07/16 07:56:28;;;;;;;8.13;2.45;;;;;;;19.03;64.39;102268.34;5006269;28;20108;-71
2022/07/16 07:58:54;;;;;;;8.90;2.05;;;;;;;18.92;62.59;102259.81;5004998;28;20091;-71
2022/07/16 08:01:19;;;;;;;7.07;2.30;;;;;;;19.00;63.34;102266.06;5004899;28;20030;-71
2022/07/16 08:03:44;;;;;;;7.15;2.28;;;;;;;18.96;62.56;102268.53;5006686;28;20370;-71
2022/07/16 08:06:10;;;;;;;6.95;2.00;;;;;;;19.04;64.12;102273.66;5005399;28;20041;-72
2022/07/16 08:08:35;;;;;;;21.02;16.13;;;;;;;19.09;63.74;102270.94;5005498;28;20026;-71
2022/07/16 08:11:00;;;;;;;15.75;8.63;;;;;;;19.08;63.96;102276.78;5005290;28;20517;-72
2022/07/16 08:13:26;;;;;;;6.55;3.38;;;;;;;19.03;63.13;102271.97;5004874;28;20026;-71
2022/07/16 08:15:51;;;;;;;10.95;5.25;;;;;;;19.06;65.11;102278.97;5005002;28;20080;-71
2022/07/16 08:18:16;;;;;;;7.82;2.30;;;;;;;19.07;60.21;102267.59;5005304;28;20466;-71
2022/07/16 08:20:41;;;;;;;8.23;2.42;;;;;;;19.09;61.67;102278.47;5005503;28;20026;-71
2022/07/16 08:23:07;;;;;;;6.35;1.80;;;;;;;19.19;61.75;102287.84;5005071;28;20029;-71
2022/07/16 08:25:44;;;;;;;7.40;2.10;;;;;;;19.28;60.48;102290.22;5005095;28;20029;-71
2022/07/16 08:28:09;;;;;;;6.03;2.07;;;;;;;19.30;61.51;102290.78;5004634;28;20087;-70
2022/07/16 08:30:35;;;;;;;5.82;2.20;;;;;;;19.40;61.30;102291.78;5004866;28;20273;-71
2022/07/16 08:33:00;;;;;;;8.00;2.22;;;;;;;19.51;59.14;102295.56;5005303;28;20041;-70
2022/07/16 08:35:26;;;;;;;5.30;1.98;;;;;;;19.62;58.46;102296.63;5005496;28;20022;-71
2022/07/16 08:37:51;;;;;;;8.55;2.05;;;;;;;19.73;56.37;102286.47;5004822;28;20033;-69
2022/07/16 08:40:19;;;;;;;5.25;1.52;;;;;;;19.89;58.32;102302.28;5005218;28;20057;-71
2022/07/16 08:42:45;;;;;;;7.50;2.13;;;;;;;19.93;55.37;102301.53;5005669;28;20054;-71
2022/07/16 08:45:12;;;;;;;8.80;2.15;;;;;;;19.98;55.04;102311.06;5003454;28;20034;-72
2022/07/16 08:47:38;;;;;;;4.95;2.10;;;;;;;20.00;56.17;102306.91;5005105;28;20022;-71
2022/07/16 08:50:08;;;;;;;7.13;2.47;;;;;;;20.02;56.45;102323.38;5004666;28;20036;-71
2022/07/16 08:52:37;;;;;;;8.18;2.05;;;;;;;20.10;55.59;102315.41;5003255;28;20021;-71
2022/07/16 08:55:03;;;;;;;5.40;2.03;;;;;;;20.16;55.39;102316.31;5004585;28;20432;-71
2022/07/16 08:57:29;;;;;;;7.15;2.17;;;;;;;20.17;54.49;102313.28;5005106;28;20125;-71
2022/07/16 08:59:54;;;;;;;5.35;2.08;;;;;;;20.13;54.60;102320.47;5003054;28;20065;-70
2022/07/16 09:02:20;;;;;;;7.85;2.30;;;;;;;20.25;56.44;102325.06;5004673;28;20084;-71
2022/07/16 09:04:46;;;;;;;6.38;2.13;;;;;;;20.26;55.90;102324.81;5004287;28;20026;-72
2022/07/16 09:07:18;;;;;;;8.43;2.40;;;;;;;20.55;55.90;102331.06;5002833;28;20026;-72
2022/07/16 09:09:44;;;;;;;11.27;2.35;;;;;;;20.80;53.86;102335.25;5005119;28;20125;-71
2022/07/16 09:12:10;;;;;;;7.97;2.45;;;;;;;21.02;54.05;102329.59;5004300;28;20042;-72
2022/07/16 09:14:36;;;;;;;8.35;2.40;;;;;;;21.03;52.13;102326.53;5003630;28;20072;-71
2022/07/16 09:17:02;;;;;;;8.18;2.20;;;;;;;21.22;52.06;102327.81;5003689;28;20114;-71
2022/07/16 09:19:29;;;;;;;10.55;2.92;;;;;;;21.16;51.05;102333.63;5003761;28;20056;-71
2022/07/16 09:22:06;;;;;;;7.50;2.20;;;;;;;21.27;53.33;102340.16;5004049;28;20082;-71
2022/07/16 09:24:38;;;;;;;6.88;2.38;;;;;;;21.46;51.72;102342.31;5004455;28;20409;-71
2022/07/16 09:27:18;;;;;;;12.50;2.60;;;;;;;21.77;52.49;102345.31;5004129;28;20028;-71
2022/07/16 09:29:52;;;;;;;8.60;2.78;;;;;;;21.90;51.29;102338.41;5003679;28;20026;-71
2022/07/16 09:32:39;;;;;;;9.23;2.30;;;;;;;21.72;51.72;102351.72;4997108;28;20080;-71
2022/07/16 09:35:10;;;;;;;11.82;2.95;;;;;;;21.60;52.02;102345.50;5000114;28;20049;-70
2022/07/16 09:37:52;;;;;;;9.25;2.10;;;;;;;21.81;51.66;102354.03;5003788;28;20034;-69
2022/07/16 09:40:37;;;;;;;10.02;2.72;;;;;;;24.46;46.63;102357.19;5004932;28;20121;-69
2022/07/16 09:43:19;;;;;;;13.10;2.42;;;;;;;26.96;40.67;102344.38;5000859;28;20124;-70
2022/07/16 09:45:55;;;;;;;8.52;2.55;;;;;;;27.30;38.31;102357.41;5001051;28;20040;-71
2022/07/16 09:48:37;;;;;;;11.20;2.30;;;;;;;27.28;38.75;102362.53;5000576;28;20088;-70
2022/07/16 09:51:20;;;;;;;9.65;2.30;;;;;;;28.43;38.15;102363.47;5003176;28;20034;-70
2022/07/16 09:53:47;;;;;;;7.18;2.00;;;;;;;27.88;35.34;102368.28;5004576;28;20437;-71
2022/07/16 09:56:32;;;;;;;8.77;2.38;;;;;;;26.24;39.75;102372.66;5004816;28;20018;-70
2022/07/16 09:58:58;;;;;;;10.25;2.20;;;;;;;26.80;39.69;102371.13;5003053;28;20056;-70
2022/07/16 10:01:24;;;;;;;7.55;1.88;;;;;;;28.13;35.42;102369.72;5001274;28;20092;-71
2022/07/16 10:03:51;;;;;;;9.27;2.42;;;;;;;29.29;31.68;102365.47;5003930;28;20491;-71
2022/07/16 10:06:17;;;;;;;9.48;1.92;;;;;;;30.15;30.42;102368.03;5005600;28;20030;-71
2022/07/16 10:08:43;;;;;;;8.05;1.95;;;;;;;30.90;29.90;102377.41;5004296;28;20030;-72
2022/07/16 10:11:10;;;;;;;10.07;1.92;;;;;;;31.01;28.32;102373.06;5004121;28;20073;-72
2022/07/16 10:13:37;;;;;;;9.32;2.22;;;;;;;31.37;28.47;102374.75;5004457;28;20026;-71
2022/07/16 10:16:03;;;;;;;7.90;2.10;;;;;;;31.91;28.10;102372.34;5002882;28;20476;-72
2022/07/16 10:18:32;;;;;;;7.43;1.90;;;;;;;32.42;27.79;102369.63;5003431;28;20094;-72
2022/07/16 10:21:12;;;;;;;5.25;1.85;;;;;;;32.79;27.09;102382.94;5004339;28;20034;-72
2022/07/16 10:23:40;;;;;;;8.15;2.05;;;;;;;32.73;26.62;102380.63;5002371;28;20033;-72
2022/07/16 10:26:08;;;;;;;6.28;2.42;;;;;;;32.77;25.07;102388.16;5004047;28;20036;-73
2022/07/16 10:28:47;;;;;;;6.43;2.08;;;;;;;32.61;28.06;102389.09;5002022;28;20050;-72
2022/07/16 10:31:37;;;;;;;6.22;1.85;;;;;;;33.11;26.19;102388.28;5021170;28;20120;-72
2022/07/16 10:34:14;;;;;;;7.30;1.73;;;;;;;33.41;25.67;102383.31;5024471;28;20050;-74
2022/07/16 10:36:54;;;;;;;6.47;1.90;;;;;;;33.36;26.49;102389.22;5008567;28;20464;-72
2022/07/16 10:39:22;;;;;;;8.43;1.80;;;;;;;33.83;25.46;102392.59;5004083;28;20072;-72
2022/07/16 10:41:53;;;;;;;9.27;2.00;;;;;;;33.34;24.81;102383.84;5000988;28;20037;-72
2022/07/16 10:44:21;;;;;;;6.32;1.73;;;;;;;30.96;26.80;102390.28;5004278;28;20463;-73
2022/07/16 10:47:01;;;;;;;4.50;1.60;;;;;;;30.16;29.69;102397.19;5020778;28;20037;-72
2022/07/16 10:49:28;;;;;;;3.78;1.45;;;;;;;30.32;30.13;102389.94;5002127;28;20340;-72
2022/07/16 10:52:20;;;;;;;4.43;1.40;;;;;;;29.34;31.21;102396.47;5006234;28;20396;-72
2022/07/16 10:54:51;;;;;;;8.80;2.00;;;;;;;28.07;33.81;102404.88;5003809;28;20109;-73
2022/07/16 10:57:18;;;;;;;5.43;1.88;;;;;;;26.77;35.42;102408.38;5003549;28;20095;-72
2022/07/16 10:59:47;;;;;;;7.20;1.90;;;;;;;25.73;34.82;102409.78;5003341;28;20348;-73
2022/07/16 11:02:15;;;;;;;7.40;1.88;;;;;;;25.17;36.15;102407.41;5022600;28;20030;-73
2022/07/16 11:04:47;;;;;;;9.05;1.85;;;;;;;25.42;38.63;102406.38;5022831;28;20028;-72
2022/07/16 11:07:15;;;;;;;6.70;2.22;;;;;;;25.81;37.65;102406.34;5022306;28;20128;-73
2022/07/16 11:09:43;;;;;;;9.18;1.73;;;;;;;25.93;37.40;102391.88;5021196;28;20100;-72
2022/07/16 11:12:19;;;;;;;6.47;2.13;;;;;;;25.68;38.05;102412.63;5022313;28;20484;-72
2022/07/16 11:14:48;;;;;;;7.82;1.88;;;;;;;25.27;37.42;102412.97;5022737;28;20087;-72
2022/07/16 11:17:15;;;;;;;6.50;1.63;;;;;;;24.54;36.52;102408.00;5023072;28;20116;-73
2022/07/16 11:19:45;;;;;;;4.95;1.30;;;;;;;25.00;38.73;102402.16;5017121;28;20034;-72
2022/07/16 11:22:11;;;;;;;5.15;1.70;;;;;;;24.91;38.11;102408.66;5003266;28;20465;-70